KWHP/WHP METAR and TAF weather

Enter ICAO airport designator
Station Type Date Time Source
KWHP METAR 2018/12/11 20:50 UTC NOAA

KWHP 112050Z 10006KT 10SM SKC 20/01 A3003


Station Type Date Time Source
KWHP Decoded METAR 2018/12/11 20:50 UTC NOAA

Los Angeles, Whiteman Airport, CA, United States (KWHP) 34-15N 118-24W
Dec 11, 2018 - 03:50 PM EST / 2018.12.11 2050 UTC
Wind: from the E (100 degrees) at 7 MPH (6 KT):0
Visibility: 10 mile(s):0
Sky conditions: clear
Temperature: 68 F (20 C)
Dew Point: 33 F (1 C)
Relative Humidity: 28%
Pressure (altimeter): 30.03 in. Hg (1016 hPa)
ob: KWHP 112050Z 10006KT 10SM SKC 20/01 A3003
cycle: 21

Station Type Date Time Source
KWHP TAF UTC NOAA

Error!


Example: see airport list